Time;durP1;ratioP1;P1;durP2;ratioP2;P2;SDS_P1;SDS_P2;PMS_P1;PMS_P2;Temp;Humidity;BMP_temperature;BMP_pressure;BME280_temperature;BME280_humidity;BME280_pressure;Samples;Min_cycle;Max_cycle;Signal;HPM_P1;HPM_P2
2022/10/05 00:00:50;;;;;;;0.90;0.87;;;9.60;99.90;9.50;100999.00;;;;4968259;28;87506;-60
2022/10/05 00:03:16;;;;;;;1.60;1.07;;;9.60;99.90;9.50;100995.00;;;;4970707;28;89202;-60
2022/10/05 00:05:44;;;;;;;2.73;0.70;;;9.60;99.90;9.40;100994.00;;;;4953522;28;88582;-61
2022/10/05 00:08:15;;;;;;;1.37;1.23;;;9.50;99.90;9.40;100989.00;;;;4958192;28;89001;-60
2022/10/05 00:10:41;;;;;;;0.80;0.80;;;9.50;99.90;9.30;100988.00;;;;4957808;28;88186;-60
2022/10/05 00:13:23;;;;;;;1.00;0.97;;;9.40;99.90;9.20;100990.00;;;;4958040;28;87616;-60
2022/10/05 00:15:49;;;;;;;3.13;1.33;;;9.40;99.90;9.20;100991.00;;;;4956992;28;111077;-60
2022/10/05 00:18:18;;;;;;;5.40;0.63;;;9.30;99.90;9.10;100998.00;;;;4956048;28;95170;-60
2022/10/05 00:20:46;;;;;;;0.90;0.90;;;9.30;99.90;9.00;100992.00;;;;4964656;28;87075;-60
2022/10/05 00:23:29;;;;;;;1.37;1.13;;;9.20;99.90;8.90;100993.00;;;;4952228;28;98098;-60
2022/10/05 00:26:05;;;;;;;5.13;1.17;;;9.10;99.90;8.80;100985.00;;;;4951515;28;87815;-60
2022/10/05 00:28:30;;;;;;;1.57;0.97;;;9.00;99.90;8.70;100980.00;;;;4947925;28;100984;-60
2022/10/05 00:30:58;;;;;;;0.40;0.40;;;8.90;99.90;8.60;100981.00;;;;4939002;28;110555;-60
2022/10/05 00:33:25;;;;;;;0.80;0.60;;;8.80;99.90;8.60;100981.00;;;;4943373;28;87850;-59
2022/10/05 00:35:50;;;;;;;0.83;0.83;;;8.70;99.90;8.50;100977.00;;;;4955858;28;88006;-60
2022/10/05 00:38:16;;;;;;;1.10;1.00;;;8.70;99.90;8.50;100980.00;;;;4969134;28;117200;-60
2022/10/05 00:41:23;;;;;;;0.80;0.80;;;8.60;99.90;8.40;100988.00;;;;4949201;28;110407;-61
2022/10/05 00:44:28;;;;;;;0.97;0.97;;;8.60;99.90;8.30;100989.00;;;;4946377;28;91525;-60
2022/10/05 00:47:14;;;;;;;1.07;0.73;;;8.50;99.90;8.30;100988.00;;;;4944869;28;87442;-60
2022/10/05 00:50:00;;;;;;;1.20;0.90;;;8.40;99.90;8.20;100986.00;;;;4939600;28;87956;-60
2022/10/05 00:52:55;;;;;;;1.00;0.90;;;8.40;99.90;8.10;100994.00;;;;4945538;28;92512;-59
2022/10/05 00:55:59;;;;;;;0.80;0.60;;;8.30;99.90;8.10;100996.00;;;;4950540;28;88657;-60
2022/10/05 00:58:51;;;;;;;0.97;0.97;;;8.30;99.90;8.00;100990.00;;;;4956257;28;87691;-60
2022/10/05 01:01:31;;;;;;;1.13;0.90;;;8.20;99.90;8.00;100998.00;;;;4950289;28;87975;-59
2022/10/05 01:04:14;;;;;;;0.80;0.80;;;8.20;99.90;7.90;100990.00;;;;4949617;28;87674;-59
2022/10/05 01:07:05;;;;;;;0.80;0.80;;;8.10;99.90;7.80;100985.00;;;;4951180;28;89787;-59
2022/10/05 01:10:29;;;;;;;0.77;0.77;;;8.00;99.90;7.70;100986.00;;;;4953279;28;87625;-60
2022/10/05 01:13:35;;;;;;;0.77;0.77;;;8.00;99.90;7.70;100980.00;;;;4928943;28;95638;-57
2022/10/05 01:16:39;;;;;;;2.60;1.17;;;7.90;99.90;7.60;100990.00;;;;4990353;28;95396;-60
2022/10/05 01:19:35;;;;;;;1.53;1.23;;;7.80;99.90;7.60;100984.00;;;;4945011;28;87662;-61
2022/10/05 01:22:31;;;;;;;0.77;0.70;;;7.80;99.90;7.40;100973.00;;;;4934252;28;87966;-60
2022/10/05 01:25:29;;;;;;;3.50;1.30;;;7.70;99.90;7.40;100967.00;;;;4953761;28;109485;-60
2022/10/05 01:28:09;;;;;;;1.53;0.90;;;7.60;99.90;7.30;100970.00;;;;4952555;28;87885;-60
2022/10/05 01:31:16;;;;;;;0.80;0.80;;;7.90;99.90;7.20;100970.00;;;;4948228;28;100583;-60
2022/10/05 01:33:54;;;;;;;0.63;0.63;;;7.50;99.90;7.20;100965.00;;;;4952168;28;93615;-57
2022/10/05 01:37:09;;;;;;;0.50;0.50;;;7.40;99.90;7.10;100974.00;;;;4953571;28;102895;-58
2022/10/05 01:39:53;;;;;;;1.17;0.60;;;7.30;99.90;7.10;100951.00;;;;4950277;28;87776;-60
2022/10/05 01:42:31;;;;;;;2.30;1.27;;;7.30;99.90;7.00;100953.00;;;;4959085;28;87915;-60
2022/10/05 01:45:47;;;;;;;1.13;0.80;;;7.20;99.90;6.90;100944.00;;;;4954300;28;87681;-60
2022/10/05 01:49:03;;;;;;;1.20;0.87;;;7.20;99.90;6.90;100956.00;;;;4954590;28;87631;-61
2022/10/05 01:52:13;;;;;;;0.80;0.80;;;7.10;99.90;6.80;100966.00;;;;4959435;28;87731;-59
2022/10/05 01:55:00;;;;;;;1.17;1.07;;;7.10;99.90;6.80;100964.00;;;;4953116;28;88479;-60
2022/10/05 01:58:04;;;;;;;0.90;0.90;;;7.00;99.90;6.80;100970.00;;;;4954667;28;87705;-61
2022/10/05 02:00:39;;;;;;;1.17;1.07;;;7.00;99.90;6.80;100961.00;;;;4947279;28;88231;-60
2022/10/05 02:03:19;;;;;;;1.20;0.90;;;6.90;99.90;6.70;100978.00;;;;4971558;28;87928;-60
2022/10/05 02:06:08;;;;;;;1.13;0.97;;;6.90;99.90;6.70;100975.00;;;;4956547;28;87948;-60
2022/10/05 02:08:54;;;;;;;1.13;0.70;;;6.90;99.90;6.70;100979.00;;;;4965457;28;110895;-61
2022/10/05 02:11:19;;;;;;;3.20;1.70;;;6.90;99.90;6.70;100980.00;;;;4952034;28;111290;-60
2022/10/05 02:13:56;;;;;;;0.80;0.80;;;7.30;99.90;6.60;100989.00;;;;4968666;28;110045;-62
2022/10/05 02:16:38;;;;;;;1.50;1.40;;;6.80;99.90;6.60;100964.00;;;;4955703;28;99298;-60
2022/10/05 02:19:33;;;;;;;1.97;1.40;;;6.80;99.90;6.50;100964.00;;;;4957727;28;104923;-60
2022/10/05 02:22:06;;;;;;;1.80;0.90;;;6.70;99.90;6.50;100959.00;;;;4953002;28;95075;-60
2022/10/05 02:24:42;;;;;;;1.23;1.00;;;7.10;99.90;6.50;100949.00;;;;4950089;28;105954;-60
2022/10/05 02:27:09;;;;;;;1.50;1.03;;;6.70;99.90;6.40;100949.00;;;;4955999;28;100568;-61
2022/10/05 02:29:39;;;;;;;0.70;0.70;;;6.60;99.90;6.40;100960.00;;;;4956524;28;99761;-61
2022/10/05 02:32:14;;;;;;;1.77;0.90;;;7.00;99.90;6.30;100948.00;;;;4974404;28;104480;-60
2022/10/05 02:34:42;;;;;;;1.00;0.90;;;6.70;99.90;6.30;100952.00;;;;4952116;28;100165;-60
2022/10/05 02:37:27;;;;;;;2.27;1.47;;;6.50;99.90;6.30;100944.00;;;;4945079;28;88661;-59
2022/10/05 02:40:38;;;;;;;1.00;0.90;;;6.40;99.90;6.20;100947.00;;;;4957029;28;87825;-60
2022/10/05 02:43:20;;;;;;;2.20;0.87;;;6.40;99.90;6.10;100938.00;;;;4950897;28;87714;-60
2022/10/05 02:46:00;;;;;;;1.27;0.70;;;6.30;99.90;6.10;100944.00;;;;4972615;28;88141;-60
2022/10/05 02:48:57;;;;;;;6.03;0.60;;;6.30;99.90;6.00;100936.00;;;;4965937;28;88889;-59
2022/10/05 02:51:33;;;;;;;1.57;1.00;;;6.30;99.90;6.00;100944.00;;;;4979586;28;103499;-60
2022/10/05 02:54:29;;;;;;;1.13;0.57;;;6.50;99.90;5.90;100944.00;;;;4954526;28;88219;-60
2022/10/05 02:57:17;;;;;;;1.90;0.83;;;6.20;99.90;5.90;100949.00;;;;4953221;28;104454;-59
2022/10/05 02:59:57;;;;;;;1.63;1.17;;;6.10;99.90;5.90;100949.00;;;;4951249;28;101464;-61
2022/10/05 03:02:51;;;;;;;1.63;1.27;;;6.10;99.90;5.80;100951.00;;;;4965898;28;88496;-60
2022/10/05 03:05:30;;;;;;;1.30;1.20;;;6.00;99.90;5.80;100943.00;;;;4923379;28;88040;-60
2022/10/05 03:08:17;;;;;;;1.33;1.23;;;6.00;99.90;5.70;100956.00;;;;4955078;28;87522;-60
2022/10/05 03:11:06;;;;;;;1.20;1.10;;;5.90;99.90;5.70;100952.00;;;;4974405;28;87521;-60
2022/10/05 03:14:39;;;;;;;0.83;0.67;;;5.90;99.90;5.60;100952.00;;;;4951923;28;108271;-60
2022/10/05 03:17:24;;;;;;;1.50;1.00;;;5.90;99.90;5.60;100961.00;;;;4925460;28;96649;-60
2022/10/05 03:20:19;;;;;;;1.10;1.03;;;5.80;99.90;5.60;100966.00;;;;4953372;28;99916;-59
2022/10/05 03:22:56;;;;;;;1.60;0.77;;;5.90;99.90;5.60;100957.00;;;;4969242;28;101775;-61
2022/10/05 03:26:00;;;;;;;1.07;1.00;;;5.80;99.90;5.50;100966.00;;;;4969690;28;89008;-61
2022/10/05 03:29:13;;;;;;;1.83;1.37;;;5.80;99.90;5.50;100975.00;;;;4950891;28;88040;-60
2022/10/05 03:31:52;;;;;;;1.03;0.70;;;5.80;99.90;5.50;100964.00;;;;4948456;28;104188;-60
2022/10/05 03:34:43;;;;;;;0.83;0.83;;;5.70;99.90;5.40;100973.00;;;;4967532;28;94269;-61
2022/10/05 03:37:37;;;;;;;0.70;0.70;;;5.60;99.90;5.40;100965.00;;;;4950100;28;87196;-61
2022/10/05 03:40:24;;;;;;;0.77;0.77;;;5.70;99.90;5.40;100961.00;;;;4951219;28;108777;-60
2022/10/05 03:43:36;;;;;;;1.27;1.07;;;5.60;99.90;5.40;100966.00;;;;4951584;28;87976;-61
2022/10/05 03:46:23;;;;;;;1.20;1.00;;;5.60;99.90;5.30;100959.00;;;;4954528;28;101148;-60
2022/10/05 03:49:07;;;;;;;3.50;0.97;;;5.80;99.90;5.30;100955.00;;;;4960759;28;109504;-60
2022/10/05 03:51:50;;;;;;;2.30;0.60;;;5.90;99.90;5.30;100966.00;;;;4962652;28;88290;-60
2022/10/05 03:54:38;;;;;;;0.93;0.90;;;5.50;99.90;5.30;100976.00;;;;4953866;28;87902;-60
2022/10/05 03:57:26;;;;;;;0.90;0.90;;;5.50;99.90;5.20;100962.00;;;;4955766;28;88016;-60
2022/10/05 04:00:25;;;;;;;1.10;0.90;;;5.50;99.90;5.20;100964.00;;;;4955565;28;104202;-60
2022/10/05 04:03:42;;;;;;;1.20;1.10;;;5.50;99.90;5.20;100968.00;;;;4933024;28;87916;-60
2022/10/05 04:06:17;;;;;;;1.47;1.07;;;5.50;99.90;5.20;100966.00;;;;4930432;28;87210;-61
2022/10/05 04:09:09;;;;;;;1.20;1.10;;;5.40;99.90;5.20;100959.00;;;;4895960;28;87938;-61
2022/10/05 04:12:03;;;;;;;0.97;0.83;;;5.40;99.90;5.20;100952.00;;;;4935489;28;91488;-60
2022/10/05 04:14:40;;;;;;;1.27;1.10;;;5.40;99.90;5.20;100946.00;;;;4942465;28;107528;-61
2022/10/05 04:17:17;;;;;;;4.47;1.43;;;5.30;99.90;5.10;100946.00;;;;4965013;28;91961;-61
2022/10/05 04:20:16;;;;;;;1.03;1.00;;;5.30;99.90;5.10;100952.00;;;;4952919;28;87618;-61
2022/10/05 04:23:06;;;;;;;0.80;0.60;;;5.70;99.90;5.10;100953.00;;;;4925447;28;108792;-61
2022/10/05 04:25:43;;;;;;;2.37;0.80;;;5.30;99.90;5.10;100944.00;;;;4971204;28;108027;-59
2022/10/05 04:28:56;;;;;;;0.93;0.80;;;5.30;99.90;5.00;100946.00;;;;4946991;28;87638;-61
2022/10/05 04:31:48;;;;;;;0.87;0.80;;;5.30;99.90;5.00;100944.00;;;;4945959;28;88007;-61
2022/10/05 04:34:57;;;;;;;1.70;0.97;;;5.30;99.90;5.00;100955.00;;;;4964233;28;87632;-59
2022/10/05 04:37:54;;;;;;;1.37;1.13;;;5.30;99.90;5.00;100951.00;;;;4907160;28;108535;-61
2022/10/05 04:41:04;;;;;;;1.90;1.10;;;5.20;99.90;5.00;100948.00;;;;4969181;28;103030;-61
2022/10/05 04:43:44;;;;;;;1.30;1.17;;;5.20;99.90;5.00;100948.00;;;;4964712;28;88752;-61
2022/10/05 04:46:42;;;;;;;1.43;1.27;;;5.20;99.90;4.90;100947.00;;;;4951222;28;88697;-61
2022/10/05 04:49:33;;;;;;;2.27;1.50;;;5.20;99.90;4.90;100940.00;;;;4951329;28;88088;-60
2022/10/05 04:52:30;;;;;;;1.53;1.43;;;5.20;99.90;4.90;100924.00;;;;4952160;28;87988;-60
2022/10/05 04:55:18;;;;;;;1.17;1.07;;;5.60;99.90;4.90;100925.00;;;;4978397;28;95727;-61
2022/10/05 04:58:28;;;;;;;1.20;1.10;;;5.10;99.90;4.90;100923.00;;;;4952104;28;88755;-61
2022/10/05 05:01:16;;;;;;;3.20;1.33;;;5.10;99.90;4.90;100931.00;;;;4942779;28;87930;-61
2022/10/05 05:04:03;;;;;;;1.57;1.13;;;5.10;99.90;4.90;100932.00;;;;4970671;28;86943;-60
2022/10/05 05:07:04;;;;;;;1.77;1.47;;;5.20;99.90;4.90;100929.00;;;;4967234;28;96391;-61
2022/10/05 05:09:44;;;;;;;1.60;1.47;;;5.20;99.90;5.00;100919.00;;;;4952155;28;88233;-58
2022/10/05 05:12:25;;;;;;;1.50;1.40;;;5.20;99.90;5.10;100923.00;;;;4948736;28;88737;-60
2022/10/05 05:15:27;;;;;;;2.20;1.33;;;5.20;99.90;5.10;100937.00;;;;4957151;28;100412;-60
2022/10/05 05:18:17;;;;;;;1.40;1.13;;;5.30;99.90;5.10;100945.00;;;;4951263;28;87790;-61
2022/10/05 05:21:19;;;;;;;2.37;1.47;;;5.30;99.90;5.20;100946.00;;;;4970642;28;111304;-61
2022/10/05 05:24:23;;;;;;;1.87;1.70;;;5.70;99.90;5.20;100949.00;;;;4961453;28;87804;-61
2022/10/05 05:27:30;;;;;;;1.23;1.00;;;5.40;99.90;5.30;100945.00;;;;4958848;28;87964;-61
2022/10/05 05:30:20;;;;;;;4.73;2.10;;;5.50;99.90;5.40;100936.00;;;;4965405;28;98048;-61
2022/10/05 05:33:21;;;;;;;4.97;2.50;;;5.60;99.90;5.60;100941.00;;;;4953949;28;88151;-61
2022/10/05 05:36:23;;;;;;;2.17;1.60;;;5.70;99.90;5.70;100942.00;;;;4953397;28;87884;-61
2022/10/05 05:39:45;;;;;;;1.73;1.40;;;5.80;99.90;5.80;100937.00;;;;4972459;28;106062;-61
2022/10/05 05:42:57;;;;;;;2.17;1.70;;;5.90;99.90;5.90;100931.00;;;;4926990;28;88717;-61
2022/10/05 05:45:41;;;;;;;4.00;1.53;;;6.00;99.90;6.00;100932.00;;;;4953928;28;88521;-61
2022/10/05 05:48:23;;;;;;;4.50;1.83;;;6.10;99.90;6.00;100924.00;;;;4972561;28;88616;-60
2022/10/05 05:50:58;;;;;;;3.17;2.30;;;6.20;99.90;6.10;100920.00;;;;4953761;28;88108;-60
2022/10/05 05:53:40;;;;;;;2.00;1.83;;;6.20;99.90;6.10;100915.00;;;;4968603;28;88057;-60
2022/10/05 05:56:13;;;;;;;3.00;1.53;;;6.30;99.90;6.20;100912.00;;;;4957127;28;112395;-62
2022/10/05 05:58:58;;;;;;;1.63;1.47;;;6.30;99.90;6.30;100920.00;;;;4970966;28;104208;-61
2022/10/05 06:01:31;;;;;;;8.73;1.77;;;7.00;99.90;6.40;100917.00;;;;4977166;28;87352;-62
2022/10/05 06:04:10;;;;;;;2.33;1.63;;;6.90;99.90;6.50;100924.00;;;;4952281;28;87986;-61
2022/10/05 06:06:41;;;;;;;1.77;1.67;;;6.60;99.90;6.60;100921.00;;;;4955135;28;88821;-61
2022/10/05 06:09:44;;;;;;;1.70;1.30;;;6.70;99.90;6.70;100927.00;;;;4968641;28;107986;-61
2022/10/05 06:12:28;;;;;;;2.80;1.83;;;6.80;99.90;6.70;100925.00;;;;4951036;28;97542;-60
2022/10/05 06:15:22;;;;;;;2.00;1.90;;;7.00;99.90;6.80;100929.00;;;;4955316;28;88097;-60
2022/10/05 06:17:55;;;;;;;4.23;2.00;;;6.90;99.90;6.80;100932.00;;;;4949811;28;99400;-61
2022/10/05 06:21:04;;;;;;;1.90;1.63;;;7.50;99.90;6.90;100929.00;;;;4950534;28;88884;-61
2022/10/05 06:24:10;;;;;;;2.67;1.57;;;7.00;99.90;7.10;100920.00;;;;4952350;28;87606;-61
2022/10/05 06:27:25;;;;;;;2.00;1.40;;;7.20;99.90;7.40;100921.00;;;;4952785;28;87732;-61
2022/10/05 06:30:10;;;;;;;3.93;2.10;;;7.40;99.90;7.70;100916.00;;;;4951308;28;97213;-61
2022/10/05 06:33:16;;;;;;;1.77;1.37;;;7.70;99.90;8.10;100911.00;;;;4957454;28;92759;-61
2022/10/05 06:36:08;;;;;;;1.80;1.70;;;8.00;99.90;8.60;100914.00;;;;4950288;28;87923;-60
2022/10/05 06:38:56;;;;;;;1.40;1.27;;;8.50;99.90;9.00;100917.00;;;;4963090;28;91321;-60
2022/10/05 06:41:53;;;;;;;1.20;1.10;;;8.90;99.90;9.50;100916.00;;;;4956617;28;102351;-60
2022/10/05 06:44:33;;;;;;;3.07;1.90;;;9.40;99.90;10.00;100914.00;;;;4953573;28;109137;-60
2022/10/05 06:47:31;;;;;;;3.83;1.77;;;9.90;99.90;10.50;100919.00;;;;4972208;28;101059;-60
2022/10/05 06:50:23;;;;;;;0.97;0.97;;;10.40;99.90;11.00;100921.00;;;;4953151;28;87883;-59
2022/10/05 06:53:32;;;;;;;1.97;1.53;;;10.90;99.90;11.50;100920.00;;;;4953115;28;110788;-59
2022/10/05 06:56:09;;;;;;;1.67;1.50;;;11.40;99.90;12.00;100926.00;;;;4954935;28;87860;-59
2022/10/05 06:58:47;;;;;;;4.50;1.47;;;11.90;99.90;12.40;100926.00;;;;4972126;28;102982;-61
2022/10/05 07:02:09;;;;;;;1.53;1.17;;;12.30;99.90;12.90;100930.00;;;;4969954;28;88025;-59
2022/10/05 07:05:07;;;;;;;1.70;1.13;;;12.70;99.90;13.40;100929.00;;;;4945291;28;110823;-58
2022/10/05 07:07:54;;;;;;;1.37;1.00;;;13.20;99.90;13.90;100928.00;;;;4955717;28;89387;-61
2022/10/05 07:10:37;;;;;;;1.97;1.10;;;13.60;99.90;14.20;100925.00;;;;4947605;28;91166;-57
2022/10/05 07:13:46;;;;;;;1.20;1.10;;;14.00;99.90;14.40;100929.00;;;;4968522;28;103652;-58
2022/10/05 07:16:50;;;;;;;0.50;0.50;;;14.30;99.90;14.50;100940.00;;;;4958774;28;88863;-58
2022/10/05 07:19:51;;;;;;;1.90;1.20;;;14.50;99.90;14.50;100937.00;;;;4955906;28;88434;-58
2022/10/05 07:22:50;;;;;;;2.60;0.93;;;14.60;99.90;14.50;100942.00;;;;4960541;28;87851;-57
2022/10/05 07:25:20;;;;;;;0.63;0.63;;;14.50;99.90;14.70;100947.00;;;;4958653;28;100308;-61
2022/10/05 07:28:05;;;;;;;0.63;0.63;;;15.00;99.90;15.10;100958.00;;;;4955260;28;98433;-60
2022/10/05 07:30:40;;;;;;;1.60;0.87;;;15.00;99.90;15.50;100953.00;;;;4951733;28;102141;-61
2022/10/05 07:33:28;;;;;;;3.22;0.80;;;15.30;99.90;16.00;100953.00;;;;4957694;28;103586;-58
2022/10/05 07:39:16;;;;;;;5.68;0.85;;;16.20;99.90;16.80;100962.00;;;;4948181;28;87632;-58
2022/10/05 07:42:03;;;;;;;1.38;1.00;;;16.60;99.90;17.20;100947.00;;;;4954383;28;107532;-58
2022/10/05 07:44:37;;;;;;;3.90;1.00;;;17.10;99.90;17.60;100941.00;;;;4973627;28;87910;-58
2022/10/05 07:47:23;;;;;;;1.30;0.52;;;17.40;99.90;17.80;100940.00;;;;4955449;28;87912;-58
2022/10/05 07:50:47;;;;;;;2.80;1.13;;;17.70;99.90;18.10;100936.00;;;;4981365;27;111235;-57
2022/10/05 07:53:24;;;;;;;0.80;0.80;;;17.90;99.90;18.10;100941.00;;;;4960147;28;88304;-59
2022/10/05 07:55:53;;;;;;;1.25;0.63;;;18.00;99.90;18.10;100942.00;;;;4969481;28;87208;-58
2022/10/05 07:58:41;;;;;;;3.72;0.70;;;18.10;99.90;18.10;100946.00;;;;4953643;28;97211;-58
2022/10/05 08:01:23;;;;;;;0.70;0.52;;;18.10;97.80;18.20;100949.00;;;;4963189;28;103925;-57
2022/10/05 08:03:59;;;;;;;1.83;0.60;;;18.10;98.60;18.30;100945.00;;;;4948965;28;89832;-58
2022/10/05 08:06:47;;;;;;;1.20;0.85;;;18.20;98.40;18.40;100947.00;;;;4972288;28;88181;-58
2022/10/05 08:09:33;;;;;;;3.33;1.20;;;18.30;97.80;18.70;100947.00;;;;4950984;28;87759;-57
2022/10/05 08:12:19;;;;;;;1.30;0.93;;;18.50;97.70;18.90;100942.00;;;;4967180;28;88288;-58
2022/10/05 08:14:57;;;;;;;0.60;0.43;;;18.70;96.80;19.10;100934.00;;;;4955222;28;101497;-58
2022/10/05 08:18:02;;;;;;;2.85;0.93;;;18.90;95.40;19.30;100940.00;;;;4957735;28;88045;-59
2022/10/05 08:20:41;;;;;;;2.33;0.80;;;19.10;95.20;19.50;100931.00;;;;4951883;28;92311;-58
2022/10/05 08:23:28;;;;;;;1.40;0.95;;;19.30;94.80;19.80;100936.00;;;;4950986;28;87346;-59
2022/10/05 08:26:20;;;;;;;1.02;0.93;;;19.50;94.70;19.90;100929.00;;;;4954148;28;87883;-58
2022/10/05 08:29:24;;;;;;;4.38;1.20;;;19.70;93.30;20.10;100936.00;;;;4944107;28;88255;-59
2022/10/05 08:31:57;;;;;;;2.00;0.75;;;19.90;92.50;20.30;100933.00;;;;4955521;28;88760;-59
2022/10/05 08:34:46;;;;;;;0.85;0.77;;;20.10;91.80;20.40;100938.00;;;;4955550;28;88271;-58
2022/10/05 08:37:26;;;;;;;2.83;0.52;;;20.20;90.70;20.60;100939.00;;;;4968015;28;111792;-59
2022/10/05 08:40:17;;;;;;;1.95;0.75;;;20.40;86.20;20.60;100937.00;;;;4951684;28;88403;-57
2022/10/05 08:43:18;;;;;;;1.02;0.70;;;20.50;85.70;20.80;100935.00;;;;4954113;28;87862;-59
2022/10/05 08:46:22;;;;;;;0.60;0.60;;;20.70;83.30;20.90;100925.00;;;;4955638;28;113775;-59
2022/10/05 08:49:46;;;;;;;3.08;0.70;;;20.80;78.70;20.90;100925.00;;;;4961378;28;88046;-57
2022/10/05 08:52:27;;;;;;;0.98;0.82;;;20.80;79.40;21.00;100924.00;;;;4948619;28;87352;-56
2022/10/05 08:55:33;;;;;;;1.33;0.60;;;20.90;77.60;21.00;100922.00;;;;4949598;28;87989;-58
2022/10/05 08:58:48;;;;;;;1.48;0.80;;;21.00;75.90;21.00;100918.00;;;;4948281;28;88326;-60
2022/10/05 09:01:44;;;;;;;0.60;0.60;;;20.90;71.80;21.00;100918.00;;;;4950207;28;89461;-61
2022/10/05 09:05:02;;;;;;;0.68;0.65;;;20.90;71.10;21.10;100929.00;;;;4957173;28;88470;-60
2022/10/05 09:07:38;;;;;;;0.30;0.30;;;21.00;70.80;21.20;100923.00;;;;4944058;28;88003;-59
2022/10/05 09:10:28;;;;;;;2.75;0.57;;;21.10;70.20;21.40;100924.00;;;;4983289;27;106042;-58
2022/10/05 09:13:00;;;;;;;2.40;0.90;;;21.20;70.10;21.50;100918.00;;;;4953144;28;110022;-58
2022/10/05 09:16:06;;;;;;;0.85;0.75;;;21.40;66.90;21.60;100926.00;;;;4955848;28;96906;-60
2022/10/05 09:18:48;;;;;;;0.60;0.60;;;21.50;65.40;21.70;100919.00;;;;4946892;28;87645;-60
2022/10/05 09:21:55;;;;;;;1.30;1.17;;;21.50;65.00;21.90;100926.00;;;;4960690;28;87818;-60
2022/10/05 09:25:07;;;;;;;0.63;0.50;;;21.70;64.20;22.00;100915.00;;;;4953267;28;87976;-60
2022/10/05 09:27:38;;;;;;;1.08;0.85;;;21.80;62.40;22.00;100917.00;;;;4960294;28;87496;-61
2022/10/05 09:30:27;;;;;;;4.45;0.77;;;21.80;63.00;21.80;100903.00;;;;4948237;28;88724;-60
2022/10/05 09:33:28;;;;;;;2.72;0.75;;;21.70;61.60;21.60;100912.00;;;;4952130;28;88925;-60
2022/10/05 09:36:16;;;;;;;1.13;0.80;;;21.60;61.40;21.50;100909.00;;;;4953830;28;87913;-60
2022/10/05 09:39:01;;;;;;;1.55;0.95;;;21.40;62.30;21.70;100900.00;;;;4964437;28;88070;-59
2022/10/05 09:42:03;;;;;;;0.38;0.38;;;21.30;63.20;21.90;100900.00;;;;4949422;28;87847;-61
2022/10/05 09:45:03;;;;;;;0.60;0.47;;;21.60;62.40;22.20;100907.00;;;;4949151;28;88128;-60
2022/10/05 09:48:03;;;;;;;0.77;0.50;;;21.90;61.60;22.30;100893.00;;;;4962419;28;88520;-58
2022/10/05 09:51:13;;;;;;;1.00;0.68;;;22.10;61.20;22.40;100891.00;;;;4951783;28;104681;-60
2022/10/05 09:54:16;;;;;;;0.35;0.35;;;22.20;60.10;22.60;100888.00;;;;4954020;28;87907;-61
2022/10/05 09:56:54;;;;;;;1.70;0.57;;;22.30;60.20;22.70;100887.00;;;;4950566;28;88058;-59
2022/10/05 09:59:41;;;;;;;0.55;0.55;;;22.50;60.50;23.10;100899.00;;;;4957015;28;88779;-57
2022/10/05 10:02:30;;;;;;;3.92;0.85;;;22.70;61.60;23.50;100895.00;;;;4960377;28;88295;-59
2022/10/05 10:05:25;;;;;;;1.30;0.90;;;23.10;60.50;23.60;100893.00;;;;4967010;28;89748;-58
2022/10/05 10:08:03;;;;;;;0.90;0.50;;;23.30;58.30;23.60;100886.00;;;;4955708;28;88000;-58
2022/10/05 10:10:52;;;;;;;3.20;0.95;;;23.30;58.00;23.70;100889.00;;;;4944218;28;87993;-59
2022/10/05 10:13:59;;;;;;;1.95;0.82;;;23.40;58.60;23.80;100882.00;;;;4951039;28;87856;-58
2022/10/05 10:16:48;;;;;;;0.65;0.40;;;23.80;57.80;23.80;100889.00;;;;4956138;28;88214;-58
2022/10/05 10:19:23;;;;;;;1.23;0.80;;;23.50;57.60;23.90;100879.00;;;;4964161;28;87935;-58
2022/10/05 10:22:50;;;;;;;1.23;0.57;;;23.60;58.50;24.10;100865.00;;;;4969649;28;107643;-59
2022/10/05 10:25:54;;;;;;;0.98;0.40;;;23.80;56.40;24.20;100876.00;;;;4964046;28;88112;-58
2022/10/05 10:28:49;;;;;;;0.50;0.50;;;23.90;57.20;24.40;100881.00;;;;4955683;28;88625;-60
2022/10/05 10:31:42;;;;;;;2.63;1.00;;;24.10;57.00;24.60;100872.00;;;;4950168;28;87882;-58
2022/10/05 10:34:38;;;;;;;1.33;0.55;;;24.30;56.00;24.60;100871.00;;;;4952850;28;107763;-58
2022/10/05 10:37:33;;;;;;;3.90;1.20;;;24.30;55.70;24.60;100876.00;;;;4953550;28;88108;-57
2022/10/05 10:40:33;;;;;;;1.27;0.80;;;24.30;55.80;24.70;100869.00;;;;4954769;28;87654;-58
2022/10/05 10:43:38;;;;;;;2.25;0.52;;;24.40;55.40;24.60;100873.00;;;;4962939;28;89307;-61
2022/10/05 10:46:59;;;;;;;1.85;1.08;;;24.40;55.10;24.50;100862.00;;;;4953890;28;88831;-58
2022/10/05 10:50:03;;;;;;;0.93;0.77;;;24.30;54.70;24.40;100858.00;;;;4953247;28;87149;-59
2022/10/05 10:53:29;;;;;;;2.58;1.15;;;24.20;54.50;24.40;100866.00;;;;4955595;28;88067;-59
2022/10/05 10:56:40;;;;;;;1.92;1.13;;;24.10;55.30;24.40;100858.00;;;;4955081;28;88169;-59
2022/10/05 10:59:50;;;;;;;1.30;0.90;;;24.10;55.40;24.30;100864.00;;;;4950487;28;98184;-59
2022/10/05 11:02:58;;;;;;;0.47;0.47;;;24.10;55.30;24.10;100862.00;;;;4962998;28;87947;-58
2022/10/05 11:06:07;;;;;;;0.93;0.75;;;23.90;55.60;23.80;100860.00;;;;4952065;28;98044;-58
2022/10/05 11:09:30;;;;;;;0.85;0.57;;;23.70;55.50;23.60;100862.00;;;;4966492;28;88007;-59
2022/10/05 11:12:33;;;;;;;0.85;0.60;;;23.40;56.10;23.40;100877.00;;;;4911400;28;88568;-61
2022/10/05 11:15:21;;;;;;;0.50;0.50;;;23.20;56.70;23.30;100874.00;;;;4950903;28;87729;-59
2022/10/05 11:18:19;;;;;;;0.80;0.63;;;23.20;56.90;23.20;100872.00;;;;4946016;28;102459;-57
2022/10/05 11:21:19;;;;;;;1.90;0.90;;;23.00;56.60;23.10;100870.00;;;;4970435;28;106350;-59
2022/10/05 11:24:37;;;;;;;0.60;0.57;;;22.90;56.80;22.90;100859.00;;;;4960197;28;108873;-58
2022/10/05 11:27:19;;;;;;;1.65;0.85;;;22.80;57.00;22.80;100865.00;;;;4945842;28;88140;-59
2022/10/05 11:30:24;;;;;;;1.38;0.57;;;22.60;57.10;22.80;100855.00;;;;4954298;28;103478;-57
2022/10/05 11:33:31;;;;;;;0.40;0.40;;;22.60;57.50;22.90;100855.00;;;;4950470;28;87802;-58
2022/10/05 11:36:30;;;;;;;1.90;0.77;;;22.70;57.80;23.10;100846.00;;;;4951691;28;88434;-58
2022/10/05 11:39:29;;;;;;;0.93;0.60;;;22.80;58.20;23.10;100843.00;;;;4957013;28;87694;-58
2022/10/05 11:42:34;;;;;;;1.25;0.82;;;22.90;57.10;23.10;100854.00;;;;4949683;28;88130;-58
2022/10/05 11:45:40;;;;;;;1.58;1.13;;;22.90;58.00;23.20;100845.00;;;;4945757;28;87801;-58
2022/10/05 11:48:31;;;;;;;0.70;0.70;;;22.90;57.80;23.20;100844.00;;;;4949212;28;88140;-56
2022/10/05 11:51:33;;;;;;;1.23;0.68;;;23.00;57.70;23.20;100837.00;;;;4950117;28;87200;-59
2022/10/05 11:54:54;;;;;;;0.70;0.70;;;23.00;57.20;23.20;100836.00;;;;4948480;28;87929;-59
2022/10/05 11:57:56;;;;;;;1.55;0.73;;;23.00;58.00;23.30;100844.00;;;;4954080;28;88840;-58
2022/10/05 12:00:30;;;;;;;3.85;1.00;;;23.00;58.40;23.50;100849.00;;;;4952968;28;111695;-58
2022/10/05 12:03:01;;;;;;;3.53;1.55;;;23.10;58.80;23.50;100851.00;;;;4953416;28;87815;-59
2022/10/05 12:05:53;;;;;;;1.15;0.70;;;23.20;57.80;23.50;100848.00;;;;4952226;28;87734;-59
2022/10/05 12:08:27;;;;;;;0.75;0.60;;;23.20;58.20;23.60;100834.00;;;;4952440;28;87878;-59
2022/10/05 12:11:12;;;;;;;1.92;0.85;;;23.30;58.60;23.70;100832.00;;;;4955063;28;88054;-58
2022/10/05 12:13:53;;;;;;;1.42;0.50;;;23.40;58.40;23.80;100823.00;;;;4950996;28;88147;-59
2022/10/05 12:16:53;;;;;;;2.03;0.60;;;23.40;58.30;23.90;100824.00;;;;4969404;28;87740;-58
2022/10/05 12:19:30;;;;;;;0.60;0.60;;;23.50;58.00;24.00;100825.00;;;;4954306;28;87202;-58
2022/10/05 12:22:22;;;;;;;1.45;0.80;;;23.70;57.80;24.20;100816.00;;;;4954622;28;87855;-61
2022/10/05 12:25:23;;;;;;;0.93;0.93;;;23.80;57.40;24.40;100822.00;;;;4955123;28;87757;-58
2022/10/05 12:27:53;;;;;;;0.80;0.80;;;24.00;57.20;24.50;100816.00;;;;4950045;28;89040;-59
2022/10/05 12:30:53;;;;;;;1.40;0.60;;;24.10;57.20;24.80;100816.00;;;;4953036;28;107644;-59
2022/10/05 12:33:28;;;;;;;1.65;1.10;;;24.40;56.70;25.00;100819.00;;;;4955394;28;88620;-59
2022/10/05 12:36:01;;;;;;;0.50;0.50;;;24.60;55.70;25.00;100812.00;;;;4960842;28;87830;-62
2022/10/05 12:38:51;;;;;;;1.85;0.45;;;24.70;55.10;24.90;100811.00;;;;4943814;28;91398;-60
2022/10/05 12:41:30;;;;;;;1.02;1.00;;;24.60;55.10;24.60;100814.00;;;;4955319;28;87914;-59